Forside
METAR-TAF:

METAR-TAF

Lufthavne :

Mejervig

Lyksborg, Tyskland

Breddekreds: 54-50N, længdekreds: 009-30E, højde: 27 m

Aktuelle vejr

Denne rapport blev lavet for 23 minutter siden, kl. 15:20 UTC
Vind 13 kt fra vest
Temperatur 16°C
Fugtighed 55%
Tryk 1022 hPa

METAR: ETGG 081520Z AUTO 26013KT //// // ////// 16/07 Q1022 ///

Tid: 17:43 (15:43 UTC)


TAF: fraværende

Vejrobservationer og prognoser fra mere end 4000 lufthavne (METAR og TAF).

De gule og røde prikker repræsenterer de meteorologiske stationer.

Flyt musen over at se navnet på stationen.

Så klik over at se vejr observationer og prognoser.

At skifte det kort: Klik på de grønne knapper med et sort kors for at zoome ind; på den grønne knap med en bindestreg for at zoome ud; eller på de grønne pile for tilstødende kort.


METAR-TAF: